DAV weather

Enrique Malek International Airport
David, Chiriquí Province, Panama

Public forecast

Using degrees Celsius for public forecast. Weather courtesy of forecast.io.

METAR (pilot weather report)

Report is more than 6 hours old.

Retrieved 2019/03/24 03:00 UTC (8 hours ago):

MPDA 240300Z 06005KT 9999 FEW030 28/21 Q1011

TAF (pilot weather forecast)

Forecast is more than 12 hours old.

Retrieved 2019/03/23 12:21 UTC (23 hours ago):

TAF TAF MPDA 231100Z 2312/2324 04006KT 9999 SCT018 TEMPO 2320/2324 21017KT